sensor_id;sensor_type;location;lat;lon;timestamp;P1;durP1;ratioP1;P2;durP2;ratioP2
39314;SDS011;28703;44.412;11.918;2023-06-14T00:01:51;7.95;;;3.83;;
39314;SDS011;28703;44.412;11.918;2023-06-14T00:04:17;5.30;;;3.38;;
39314;SDS011;28703;44.412;11.918;2023-06-14T00:06:44;3.65;;;3.30;;
39314;SDS011;28703;44.412;11.918;2023-06-14T00:09:13;9.20;;;3.80;;
39314;SDS011;28703;44.412;11.918;2023-06-14T00:11:40;7.82;;;3.45;;
39314;SDS011;28703;44.412;11.918;2023-06-14T00:14:06;4.15;;;3.20;;
39314;SDS011;28703;44.412;11.918;2023-06-14T00:16:32;4.65;;;3.40;;
39314;SDS011;28703;44.412;11.918;2023-06-14T00:19:00;5.65;;;2.97;;
39314;SDS011;28703;44.412;11.918;2023-06-14T00:21:29;12.00;;;3.92;;
39314;SDS011;28703;44.412;11.918;2023-06-14T00:23:55;4.15;;;3.25;;
39314;SDS011;28703;44.412;11.918;2023-06-14T00:26:22;18.70;;;4.20;;
39314;SDS011;28703;44.412;11.918;2023-06-14T00:28:49;8.82;;;3.78;;
39314;SDS011;28703;44.412;11.918;2023-06-14T00:31:15;7.90;;;2.92;;
39314;SDS011;28703;44.412;11.918;2023-06-14T00:33:41;7.95;;;3.45;;
39314;SDS011;28703;44.412;11.918;2023-06-14T00:36:07;12.38;;;3.35;;
39314;SDS011;28703;44.412;11.918;2023-06-14T00:38:32;4.63;;;3.33;;
39314;SDS011;28703;44.412;11.918;2023-06-14T00:40:59;12.18;;;4.93;;
39314;SDS011;28703;44.412;11.918;2023-06-14T00:43:25;15.60;;;4.10;;
39314;SDS011;28703;44.412;11.918;2023-06-14T00:45:52;6.93;;;3.67;;
39314;SDS011;28703;44.412;11.918;2023-06-14T00:48:18;8.38;;;3.63;;
39314;SDS011;28703;44.412;11.918;2023-06-14T00:50:45;11.35;;;3.90;;
39314;SDS011;28703;44.412;11.918;2023-06-14T00:53:15;9.32;;;3.95;;
39314;SDS011;28703;44.412;11.918;2023-06-14T00:55:45;11.40;;;3.88;;
39314;SDS011;28703;44.412;11.918;2023-06-14T00:58:15;14.27;;;4.22;;
39314;SDS011;28703;44.412;11.918;2023-06-14T01:00:41;12.02;;;3.80;;
39314;SDS011;28703;44.412;11.918;2023-06-14T01:03:07;11.75;;;3.75;;
39314;SDS011;28703;44.412;11.918;2023-06-14T01:05:37;14.10;;;5.28;;
39314;SDS011;28703;44.412;11.918;2023-06-14T01:11:01;9.40;;;5.03;;
39314;SDS011;28703;44.412;11.918;2023-06-14T01:13:42;8.27;;;4.57;;
39314;SDS011;28703;44.412;11.918;2023-06-14T01:16:10;15.07;;;4.95;;
39314;SDS011;28703;44.412;11.918;2023-06-14T01:18:37;11.55;;;4.03;;
39314;SDS011;28703;44.412;11.918;2023-06-14T01:21:04;6.95;;;5.00;;
39314;SDS011;28703;44.412;11.918;2023-06-14T01:23:31;8.45;;;5.80;;
39314;SDS011;28703;44.412;11.918;2023-06-14T01:25:58;6.68;;;5.32;;
39314;SDS011;28703;44.412;11.918;2023-06-14T01:28:26;7.65;;;4.97;;
39314;SDS011;28703;44.412;11.918;2023-06-14T01:30:58;11.05;;;4.85;;
39314;SDS011;28703;44.412;11.918;2023-06-14T01:33:29;14.73;;;4.50;;
39314;SDS011;28703;44.412;11.918;2023-06-14T01:35:58;6.30;;;3.78;;
39314;SDS011;28703;44.412;11.918;2023-06-14T01:38:28;11.05;;;3.22;;
39314;SDS011;28703;44.412;11.918;2023-06-14T01:40:57;5.95;;;3.53;;
39314;SDS011;28703;44.412;11.918;2023-06-14T01:43:25;9.07;;;4.18;;
39314;SDS011;28703;44.412;11.918;2023-06-14T01:45:52;7.43;;;3.70;;
39314;SDS011;28703;44.412;11.918;2023-06-14T01:48:20;9.05;;;3.85;;
39314;SDS011;28703;44.412;11.918;2023-06-14T01:50:47;9.27;;;3.83;;
39314;SDS011;28703;44.412;11.918;2023-06-14T01:53:15;7.60;;;3.70;;
39314;SDS011;28703;44.412;11.918;2023-06-14T01:55:41;13.70;;;4.28;;
39314;SDS011;28703;44.412;11.918;2023-06-14T01:58:08;5.20;;;3.42;;
39314;SDS011;28703;44.412;11.918;2023-06-14T02:00:35;7.18;;;3.00;;
39314;SDS011;28703;44.412;11.918;2023-06-14T02:03:01;4.40;;;3.22;;
39314;SDS011;28703;44.412;11.918;2023-06-14T02:05:29;11.27;;;3.35;;
39314;SDS011;28703;44.412;11.918;2023-06-14T02:07:55;11.38;;;3.95;;
39314;SDS011;28703;44.412;11.918;2023-06-14T02:10:21;14.40;;;4.03;;
39314;SDS011;28703;44.412;11.918;2023-06-14T02:12:47;10.70;;;3.78;;
39314;SDS011;28703;44.412;11.918;2023-06-14T02:15:13;11.32;;;3.78;;
39314;SDS011;28703;44.412;11.918;2023-06-14T02:17:48;6.28;;;4.00;;
39314;SDS011;28703;44.412;11.918;2023-06-14T02:20:17;8.02;;;4.53;;
39314;SDS011;28703;44.412;11.918;2023-06-14T02:22:43;17.58;;;4.82;;
39314;SDS011;28703;44.412;11.918;2023-06-14T02:25:10;8.65;;;4.88;;
39314;SDS011;28703;44.412;11.918;2023-06-14T02:27:36;7.53;;;5.78;;
39314;SDS011;28703;44.412;11.918;2023-06-14T02:30:03;15.82;;;6.63;;
39314;SDS011;28703;44.412;11.918;2023-06-14T02:32:31;13.60;;;7.32;;
39314;SDS011;28703;44.412;11.918;2023-06-14T02:34:59;12.90;;;6.65;;
39314;SDS011;28703;44.412;11.918;2023-06-14T02:37:25;19.77;;;7.63;;
39314;SDS011;28703;44.412;11.918;2023-06-14T02:39:52;20.30;;;6.93;;
39314;SDS011;28703;44.412;11.918;2023-06-14T02:42:18;14.18;;;7.57;;
39314;SDS011;28703;44.412;11.918;2023-06-14T02:44:44;10.60;;;7.35;;
39314;SDS011;28703;44.412;11.918;2023-06-14T02:47:11;11.52;;;7.07;;
39314;SDS011;28703;44.412;11.918;2023-06-14T02:49:37;14.73;;;7.97;;
39314;SDS011;28703;44.412;11.918;2023-06-14T02:52:03;12.40;;;6.30;;
39314;SDS011;28703;44.412;11.918;2023-06-14T02:54:30;11.73;;;7.07;;
39314;SDS011;28703;44.412;11.918;2023-06-14T02:56:57;12.52;;;6.25;;
39314;SDS011;28703;44.412;11.918;2023-06-14T02:59:23;9.07;;;6.07;;
39314;SDS011;28703;44.412;11.918;2023-06-14T03:01:52;12.52;;;7.25;;
39314;SDS011;28703;44.412;11.918;2023-06-14T03:04:19;18.70;;;6.88;;
39314;SDS011;28703;44.412;11.918;2023-06-14T03:06:46;18.58;;;6.70;;
39314;SDS011;28703;44.412;11.918;2023-06-14T03:09:17;10.38;;;6.80;;
39314;SDS011;28703;44.412;11.918;2023-06-14T03:11:43;14.05;;;6.97;;
39314;SDS011;28703;44.412;11.918;2023-06-14T03:14:09;10.38;;;6.90;;
39314;SDS011;28703;44.412;11.918;2023-06-14T03:16:37;11.10;;;7.38;;
39314;SDS011;28703;44.412;11.918;2023-06-14T03:19:03;16.30;;;7.82;;
39314;SDS011;28703;44.412;11.918;2023-06-14T03:21:31;9.00;;;7.18;;
39314;SDS011;28703;44.412;11.918;2023-06-14T03:24:00;29.02;;;8.48;;
39314;SDS011;28703;44.412;11.918;2023-06-14T03:26:27;11.52;;;7.00;;
39314;SDS011;28703;44.412;11.918;2023-06-14T03:28:55;16.80;;;8.30;;
39314;SDS011;28703;44.412;11.918;2023-06-14T03:31:22;15.40;;;8.50;;
39314;SDS011;28703;44.412;11.918;2023-06-14T03:33:49;16.90;;;9.55;;
39314;SDS011;28703;44.412;11.918;2023-06-14T03:36:15;14.50;;;9.02;;
39314;SDS011;28703;44.412;11.918;2023-06-14T03:38:43;10.90;;;7.95;;
39314;SDS011;28703;44.412;11.918;2023-06-14T03:41:10;14.63;;;7.63;;
39314;SDS011;28703;44.412;11.918;2023-06-14T03:43:37;13.85;;;7.38;;
39314;SDS011;28703;44.412;11.918;2023-06-14T03:46:03;10.60;;;6.40;;
39314;SDS011;28703;44.412;11.918;2023-06-14T03:48:31;13.07;;;7.50;;
39314;SDS011;28703;44.412;11.918;2023-06-14T03:50:57;9.57;;;5.88;;
39314;SDS011;28703;44.412;11.918;2023-06-14T03:53:23;15.02;;;6.82;;
39314;SDS011;28703;44.412;11.918;2023-06-14T03:55:51;17.60;;;7.38;;
39314;SDS011;28703;44.412;11.918;2023-06-14T03:58:19;14.25;;;5.75;;
39314;SDS011;28703;44.412;11.918;2023-06-14T04:00:45;13.82;;;5.80;;
39314;SDS011;28703;44.412;11.918;2023-06-14T04:03:11;8.10;;;5.63;;
39314;SDS011;28703;44.412;11.918;2023-06-14T04:05:39;12.88;;;5.70;;
39314;SDS011;28703;44.412;11.918;2023-06-14T04:08:08;13.43;;;6.22;;
39314;SDS011;28703;44.412;11.918;2023-06-14T04:10:35;17.63;;;5.30;;
39314;SDS011;28703;44.412;11.918;2023-06-14T04:13:01;12.82;;;6.03;;
39314;SDS011;28703;44.412;11.918;2023-06-14T04:15:28;9.07;;;4.38;;
39314;SDS011;28703;44.412;11.918;2023-06-14T04:17:55;14.82;;;5.32;;
39314;SDS011;28703;44.412;11.918;2023-06-14T04:20:23;13.52;;;5.78;;
39314;SDS011;28703;44.412;11.918;2023-06-14T04:22:52;10.68;;;5.47;;
39314;SDS011;28703;44.412;11.918;2023-06-14T04:25:18;17.00;;;6.38;;
39314;SDS011;28703;44.412;11.918;2023-06-14T04:27:46;21.27;;;6.95;;
39314;SDS011;28703;44.412;11.918;2023-06-14T04:30:12;13.25;;;6.57;;
39314;SDS011;28703;44.412;11.918;2023-06-14T04:32:45;20.50;;;6.85;;
39314;SDS011;28703;44.412;11.918;2023-06-14T04:35:12;11.90;;;5.97;;
39314;SDS011;28703;44.412;11.918;2023-06-14T04:37:41;18.10;;;5.68;;
39314;SDS011;28703;44.412;11.918;2023-06-14T04:40:09;13.32;;;5.95;;
39314;SDS011;28703;44.412;11.918;2023-06-14T04:42:37;10.43;;;4.50;;
39314;SDS011;28703;44.412;11.918;2023-06-14T04:45:07;6.43;;;4.82;;
39314;SDS011;28703;44.412;11.918;2023-06-14T04:47:35;24.05;;;5.00;;
39314;SDS011;28703;44.412;11.918;2023-06-14T04:50:04;9.82;;;5.10;;
39314;SDS011;28703;44.412;11.918;2023-06-14T04:52:31;11.88;;;4.22;;
39314;SDS011;28703;44.412;11.918;2023-06-14T04:54:58;5.88;;;4.22;;
39314;SDS011;28703;44.412;11.918;2023-06-14T04:57:26;9.25;;;3.75;;
39314;SDS011;28703;44.412;11.918;2023-06-14T04:59:55;9.13;;;3.97;;
39314;SDS011;28703;44.412;11.918;2023-06-14T05:02:24;8.75;;;3.65;;
39314;SDS011;28703;44.412;11.918;2023-06-14T05:04:52;8.60;;;4.50;;
39314;SDS011;28703;44.412;11.918;2023-06-14T05:07:18;10.10;;;3.90;;
39314;SDS011;28703;44.412;11.918;2023-06-14T05:09:47;10.82;;;4.53;;
39314;SDS011;28703;44.412;11.918;2023-06-14T05:12:13;9.27;;;4.72;;
39314;SDS011;28703;44.412;11.918;2023-06-14T05:14:43;10.63;;;4.03;;
39314;SDS011;28703;44.412;11.918;2023-06-14T05:17:10;10.02;;;4.50;;
39314;SDS011;28703;44.412;11.918;2023-06-14T05:19:35;7.10;;;4.43;;
39314;SDS011;28703;44.412;11.918;2023-06-14T05:22:01;12.10;;;5.18;;
39314;SDS011;28703;44.412;11.918;2023-06-14T05:24:28;8.82;;;4.65;;
39314;SDS011;28703;44.412;11.918;2023-06-14T05:26:56;13.05;;;5.30;;
39314;SDS011;28703;44.412;11.918;2023-06-14T05:29:22;7.00;;;4.80;;
39314;SDS011;28703;44.412;11.918;2023-06-14T05:31:47;14.98;;;5.78;;
39314;SDS011;28703;44.412;11.918;2023-06-14T05:34:13;4.80;;;4.35;;
39314;SDS011;28703;44.412;11.918;2023-06-14T05:36:39;15.98;;;5.85;;
39314;SDS011;28703;44.412;11.918;2023-06-14T05:39:05;8.20;;;5.43;;
39314;SDS011;28703;44.412;11.918;2023-06-14T05:41:32;17.65;;;5.20;;
39314;SDS011;28703;44.412;11.918;2023-06-14T05:43:57;6.57;;;3.92;;
39314;SDS011;28703;44.412;11.918;2023-06-14T05:46:25;10.45;;;4.10;;
39314;SDS011;28703;44.412;11.918;2023-06-14T05:48:51;7.97;;;4.57;;
39314;SDS011;28703;44.412;11.918;2023-06-14T05:51:17;12.20;;;5.13;;
39314;SDS011;28703;44.412;11.918;2023-06-14T05:53:46;10.25;;;4.75;;
39314;SDS011;28703;44.412;11.918;2023-06-14T05:56:13;12.68;;;3.92;;
39314;SDS011;28703;44.412;11.918;2023-06-14T05:58:40;11.60;;;4.35;;
39314;SDS011;28703;44.412;11.918;2023-06-14T06:01:06;9.48;;;5.20;;
39314;SDS011;28703;44.412;11.918;2023-06-14T06:03:32;11.40;;;4.28;;
39314;SDS011;28703;44.412;11.918;2023-06-14T06:05:58;13.13;;;5.35;;
39314;SDS011;28703;44.412;11.918;2023-06-14T06:08:25;13.93;;;4.32;;
39314;SDS011;28703;44.412;11.918;2023-06-14T06:10:52;13.68;;;4.22;;
39314;SDS011;28703;44.412;11.918;2023-06-14T06:13:18;10.60;;;3.75;;
39314;SDS011;28703;44.412;11.918;2023-06-14T06:15:44;15.90;;;5.43;;
39314;SDS011;28703;44.412;11.918;2023-06-14T06:18:11;6.22;;;3.90;;
39314;SDS011;28703;44.412;11.918;2023-06-14T06:20:36;14.80;;;4.78;;
39314;SDS011;28703;44.412;11.918;2023-06-14T06:23:02;9.68;;;4.65;;
39314;SDS011;28703;44.412;11.918;2023-06-14T06:25:28;12.75;;;4.85;;
39314;SDS011;28703;44.412;11.918;2023-06-14T06:27:56;5.57;;;4.57;;
39314;SDS011;28703;44.412;11.918;2023-06-14T06:30:23;7.20;;;4.20;;
39314;SDS011;28703;44.412;11.918;2023-06-14T06:32:49;8.27;;;4.38;;
39314;SDS011;28703;44.412;11.918;2023-06-14T06:35:16;10.02;;;4.55;;
39314;SDS011;28703;44.412;11.918;2023-06-14T06:37:42;16.05;;;5.28;;
39314;SDS011;28703;44.412;11.918;2023-06-14T06:40:08;9.63;;;4.90;;
39314;SDS011;28703;44.412;11.918;2023-06-14T06:42:35;12.43;;;5.40;;
39314;SDS011;28703;44.412;11.918;2023-06-14T06:45:05;9.90;;;6.38;;
39314;SDS011;28703;44.412;11.918;2023-06-14T06:47:31;8.15;;;5.57;;
39314;SDS011;28703;44.412;11.918;2023-06-14T06:49:57;8.80;;;6.53;;
39314;SDS011;28703;44.412;11.918;2023-06-14T06:52:23;7.80;;;6.43;;
39314;SDS011;28703;44.412;11.918;2023-06-14T06:54:49;9.20;;;6.18;;
39314;SDS011;28703;44.412;11.918;2023-06-14T06:57:15;10.23;;;6.40;;
39314;SDS011;28703;44.412;11.918;2023-06-14T06:59:41;11.82;;;6.95;;
39314;SDS011;28703;44.412;11.918;2023-06-14T07:02:07;15.25;;;6.57;;
39314;SDS011;28703;44.412;11.918;2023-06-14T07:04:33;11.32;;;6.78;;
39314;SDS011;28703;44.412;11.918;2023-06-14T07:06:59;44.60;;;30.80;;
39314;SDS011;28703;44.412;11.918;2023-06-14T07:09:25;11.93;;;7.95;;
39314;SDS011;28703;44.412;11.918;2023-06-14T07:11:51;13.68;;;7.85;;
39314;SDS011;28703;44.412;11.918;2023-06-14T07:14:17;19.02;;;8.65;;
39314;SDS011;28703;44.412;11.918;2023-06-14T07:16:43;15.52;;;7.47;;
39314;SDS011;28703;44.412;11.918;2023-06-14T07:19:10;321.40;;;30.75;;
39314;SDS011;28703;44.412;11.918;2023-06-14T07:21:36;27.17;;;10.77;;
39314;SDS011;28703;44.412;11.918;2023-06-14T07:24:04;69.82;;;11.48;;
39314;SDS011;28703;44.412;11.918;2023-06-14T07:26:33;23.13;;;9.02;;
39314;SDS011;28703;44.412;11.918;2023-06-14T07:29:00;22.08;;;9.00;;
39314;SDS011;28703;44.412;11.918;2023-06-14T07:31:26;14.73;;;9.13;;
39314;SDS011;28703;44.412;11.918;2023-06-14T07:33:52;15.35;;;9.95;;
39314;SDS011;28703;44.412;11.918;2023-06-14T07:36:18;14.93;;;8.18;;
39314;SDS011;28703;44.412;11.918;2023-06-14T07:38:45;9.25;;;7.75;;
39314;SDS011;28703;44.412;11.918;2023-06-14T07:41:11;9.55;;;7.75;;
39314;SDS011;28703;44.412;11.918;2023-06-14T07:43:37;17.55;;;7.78;;
39314;SDS011;28703;44.412;11.918;2023-06-14T07:46:04;11.88;;;7.95;;
39314;SDS011;28703;44.412;11.918;2023-06-14T07:48:30;9.68;;;8.60;;
39314;SDS011;28703;44.412;11.918;2023-06-14T07:50:56;14.75;;;9.40;;
39314;SDS011;28703;44.412;11.918;2023-06-14T07:53:22;19.65;;;10.35;;
39314;SDS011;28703;44.412;11.918;2023-06-14T07:55:48;12.75;;;8.43;;
39314;SDS011;28703;44.412;11.918;2023-06-14T07:58:14;19.48;;;10.43;;
39314;SDS011;28703;44.412;11.918;2023-06-14T08:00:40;9.93;;;8.88;;
39314;SDS011;28703;44.412;11.918;2023-06-14T08:03:06;17.48;;;12.48;;
39314;SDS011;28703;44.412;11.918;2023-06-14T08:05:32;20.90;;;11.02;;
39314;SDS011;28703;44.412;11.918;2023-06-14T08:07:58;12.63;;;10.80;;
39314;SDS011;28703;44.412;11.918;2023-06-14T08:10:24;12.55;;;9.77;;
39314;SDS011;28703;44.412;11.918;2023-06-14T08:12:50;11.55;;;8.63;;
39314;SDS011;28703;44.412;11.918;2023-06-14T08:15:16;16.45;;;11.23;;
39314;SDS011;28703;44.412;11.918;2023-06-14T08:17:43;9.35;;;7.55;;
39314;SDS011;28703;44.412;11.918;2023-06-14T08:20:10;13.10;;;10.13;;
39314;SDS011;28703;44.412;11.918;2023-06-14T08:22:36;11.20;;;8.85;;
39314;SDS011;28703;44.412;11.918;2023-06-14T08:25:03;10.32;;;9.43;;
39314;SDS011;28703;44.412;11.918;2023-06-14T08:27:29;26.08;;;18.17;;
39314;SDS011;28703;44.412;11.918;2023-06-14T08:29:56;14.63;;;9.60;;
39314;SDS011;28703;44.412;11.918;2023-06-14T08:32:22;20.52;;;15.48;;
39314;SDS011;28703;44.412;11.918;2023-06-14T08:34:48;32.72;;;15.40;;
39314;SDS011;28703;44.412;11.918;2023-06-14T08:37:14;13.77;;;11.07;;
39314;SDS011;28703;44.412;11.918;2023-06-14T08:39:41;14.23;;;12.68;;
39314;SDS011;28703;44.412;11.918;2023-06-14T08:42:07;22.05;;;10.25;;
39314;SDS011;28703;44.412;11.918;2023-06-14T08:44:34;11.10;;;9.10;;
39314;SDS011;28703;44.412;11.918;2023-06-14T08:47:00;10.40;;;9.27;;
39314;SDS011;28703;44.412;11.918;2023-06-14T08:49:28;10.77;;;8.02;;
39314;SDS011;28703;44.412;11.918;2023-06-14T08:51:59;7.95;;;7.07;;
39314;SDS011;28703;44.412;11.918;2023-06-14T08:54:29;9.60;;;7.80;;
39314;SDS011;28703;44.412;11.918;2023-06-14T08:56:59;6.97;;;6.38;;
39314;SDS011;28703;44.412;11.918;2023-06-14T08:59:25;11.40;;;8.05;;
39314;SDS011;28703;44.412;11.918;2023-06-14T09:01:52;8.30;;;7.28;;
39314;SDS011;28703;44.412;11.918;2023-06-14T09:04:20;10.20;;;7.07;;
39314;SDS011;28703;44.412;11.918;2023-06-14T09:06:47;9.68;;;7.43;;
39314;SDS011;28703;44.412;11.918;2023-06-14T09:09:23;6.53;;;5.75;;
39314;SDS011;28703;44.412;11.918;2023-06-14T09:11:52;7.63;;;4.88;;
39314;SDS011;28703;44.412;11.918;2023-06-14T09:14:18;5.28;;;3.97;;
39314;SDS011;28703;44.412;11.918;2023-06-14T09:16:45;5.35;;;4.45;;
39314;SDS011;28703;44.412;11.918;2023-06-14T09:19:20;6.18;;;5.60;;
39314;SDS011;28703;44.412;11.918;2023-06-14T09:21:50;5.82;;;5.32;;
39314;SDS011;28703;44.412;11.918;2023-06-14T09:24:18;5.85;;;5.35;;
39314;SDS011;28703;44.412;11.918;2023-06-14T09:26:46;5.40;;;4.85;;
39314;SDS011;28703;44.412;11.918;2023-06-14T09:29:12;8.00;;;5.13;;
39314;SDS011;28703;44.412;11.918;2023-06-14T09:31:38;4.78;;;4.45;;
39314;SDS011;28703;44.412;11.918;2023-06-14T09:34:04;5.53;;;4.32;;
39314;SDS011;28703;44.412;11.918;2023-06-14T09:36:31;8.30;;;4.95;;
39314;SDS011;28703;44.412;11.918;2023-06-14T09:38:58;5.30;;;4.10;;
39314;SDS011;28703;44.412;11.918;2023-06-14T09:41:36;8.50;;;3.72;;
39314;SDS011;28703;44.412;11.918;2023-06-14T09:44:04;6.35;;;4.32;;
39314;SDS011;28703;44.412;11.918;2023-06-14T09:46:32;5.05;;;4.55;;
39314;SDS011;28703;44.412;11.918;2023-06-14T09:48:59;5.72;;;4.93;;
39314;SDS011;28703;44.412;11.918;2023-06-14T09:51:27;7.82;;;7.05;;
39314;SDS011;28703;44.412;11.918;2023-06-14T09:53:58;6.72;;;5.63;;
39314;SDS011;28703;44.412;11.918;2023-06-14T09:56:36;10.50;;;8.05;;
39314;SDS011;28703;44.412;11.918;2023-06-14T09:59:04;7.68;;;6.90;;
39314;SDS011;28703;44.412;11.918;2023-06-14T10:01:32;8.95;;;7.30;;
39314;SDS011;28703;44.412;11.918;2023-06-14T10:04:04;8.80;;;4.97;;
39314;SDS011;28703;44.412;11.918;2023-06-14T10:06:31;9.35;;;4.93;;
39314;SDS011;28703;44.412;11.918;2023-06-14T10:08:59;12.73;;;5.55;;
39314;SDS011;28703;44.412;11.918;2023-06-14T10:11:26;6.35;;;5.57;;
39314;SDS011;28703;44.412;11.918;2023-06-14T10:13:53;16.98;;;12.30;;
39314;SDS011;28703;44.412;11.918;2023-06-14T10:16:24;36.95;;;29.67;;
39314;SDS011;28703;44.412;11.918;2023-06-14T10:19:13;18.77;;;12.18;;
39314;SDS011;28703;44.412;11.918;2023-06-14T10:24:30;9.73;;;7.97;;
39314;SDS011;28703;44.412;11.918;2023-06-14T10:26:59;9.20;;;7.50;;
39314;SDS011;28703;44.412;11.918;2023-06-14T10:29:29;6.45;;;5.38;;
39314;SDS011;28703;44.412;11.918;2023-06-14T10:31:57;16.00;;;10.68;;
39314;SDS011;28703;44.412;11.918;2023-06-14T10:34:31;8.82;;;7.72;;
39314;SDS011;28703;44.412;11.918;2023-06-14T10:37:01;11.88;;;8.93;;
39314;SDS011;28703;44.412;11.918;2023-06-14T10:39:41;8.20;;;7.47;;
39314;SDS011;28703;44.412;11.918;2023-06-14T10:42:09;12.20;;;9.98;;
39314;SDS011;28703;44.412;11.918;2023-06-14T10:44:39;21.50;;;16.63;;
39314;SDS011;28703;44.412;11.918;2023-06-14T10:49:55;16.05;;;13.30;;
39314;SDS011;28703;44.412;11.918;2023-06-14T10:52:33;23.70;;;21.15;;
39314;SDS011;28703;44.412;11.918;2023-06-14T10:55:13;14.90;;;11.57;;
39314;SDS011;28703;44.412;11.918;2023-06-14T10:57:42;9.27;;;7.05;;
39314;SDS011;28703;44.412;11.918;2023-06-14T11:00:12;10.00;;;7.97;;
39314;SDS011;28703;44.412;11.918;2023-06-14T11:05:16;9.35;;;7.55;;
39314;SDS011;28703;44.412;11.918;2023-06-14T11:12:56;8.63;;;6.53;;
39314;SDS011;28703;44.412;11.918;2023-06-14T11:15:32;9.43;;;4.45;;
39314;SDS011;28703;44.412;11.918;2023-06-14T11:18:02;7.65;;;5.90;;
39314;SDS011;28703;44.412;11.918;2023-06-14T11:20:31;14.10;;;10.63;;
39314;SDS011;28703;44.412;11.918;2023-06-14T11:22:58;12.48;;;11.20;;
39314;SDS011;28703;44.412;11.918;2023-06-14T11:25:25;7.93;;;6.07;;
39314;SDS011;28703;44.412;11.918;2023-06-14T11:27:53;9.52;;;7.35;;
39314;SDS011;28703;44.412;11.918;2023-06-14T11:30:20;7.70;;;5.97;;
39314;SDS011;28703;44.412;11.918;2023-06-14T11:32:47;6.50;;;4.82;;
39314;SDS011;28703;44.412;11.918;2023-06-14T11:35:13;9.13;;;6.40;;
39314;SDS011;28703;44.412;11.918;2023-06-14T11:37:40;7.40;;;6.15;;
39314;SDS011;28703;44.412;11.918;2023-06-14T11:40:07;10.57;;;5.45;;
39314;SDS011;28703;44.412;11.918;2023-06-14T11:42:35;7.97;;;6.80;;
39314;SDS011;28703;44.412;11.918;2023-06-14T11:45:02;13.40;;;12.00;;
39314;SDS011;28703;44.412;11.918;2023-06-14T11:47:33;16.45;;;12.30;;
39314;SDS011;28703;44.412;11.918;2023-06-14T11:50:01;7.82;;;6.45;;
39314;SDS011;28703;44.412;11.918;2023-06-14T11:52:28;7.90;;;5.07;;
39314;SDS011;28703;44.412;11.918;2023-06-14T11:54:53;10.18;;;4.57;;
39314;SDS011;28703;44.412;11.918;2023-06-14T11:57:21;5.25;;;4.75;;
39314;SDS011;28703;44.412;11.918;2023-06-14T11:59:48;5.82;;;4.22;;
39314;SDS011;28703;44.412;11.918;2023-06-14T12:02:14;5.68;;;5.07;;
39314;SDS011;28703;44.412;11.918;2023-06-14T12:04:41;5.10;;;4.60;;
39314;SDS011;28703;44.412;11.918;2023-06-14T12:07:12;6.50;;;4.35;;
39314;SDS011;28703;44.412;11.918;2023-06-14T12:12:22;4.78;;;3.42;;
39314;SDS011;28703;44.412;11.918;2023-06-14T12:14:53;5.82;;;4.28;;
39314;SDS011;28703;44.412;11.918;2023-06-14T12:17:21;5.30;;;4.15;;
39314;SDS011;28703;44.412;11.918;2023-06-14T12:19:47;4.20;;;3.80;;
39314;SDS011;28703;44.412;11.918;2023-06-14T12:22:15;4.47;;;3.90;;
39314;SDS011;28703;44.412;11.918;2023-06-14T12:24:45;4.03;;;3.55;;
39314;SDS011;28703;44.412;11.918;2023-06-14T12:27:11;8.35;;;4.35;;
39314;SDS011;28703;44.412;11.918;2023-06-14T12:29:40;5.47;;;3.83;;
39314;SDS011;28703;44.412;11.918;2023-06-14T12:32:09;6.28;;;4.22;;
39314;SDS011;28703;44.412;11.918;2023-06-14T12:34:35;4.82;;;3.60;;
39314;SDS011;28703;44.412;11.918;2023-06-14T12:37:01;7.03;;;3.78;;
39314;SDS011;28703;44.412;11.918;2023-06-14T12:39:29;4.53;;;4.13;;
39314;SDS011;28703;44.412;11.918;2023-06-14T12:41:58;3.95;;;3.60;;
39314;SDS011;28703;44.412;11.918;2023-06-14T12:44:24;5.90;;;2.83;;
39314;SDS011;28703;44.412;11.918;2023-06-14T12:46:50;2.90;;;2.70;;
39314;SDS011;28703;44.412;11.918;2023-06-14T12:49:18;3.88;;;2.90;;
39314;SDS011;28703;44.412;11.918;2023-06-14T12:51:45;4.72;;;2.95;;
39314;SDS011;28703;44.412;11.918;2023-06-14T12:54:11;3.17;;;2.80;;
39314;SDS011;28703;44.412;11.918;2023-06-14T12:56:37;5.00;;;3.42;;
39314;SDS011;28703;44.412;11.918;2023-06-14T12:59:03;2.45;;;2.25;;
39314;SDS011;28703;44.412;11.918;2023-06-14T13:01:29;2.53;;;2.33;;
39314;SDS011;28703;44.412;11.918;2023-06-14T13:03:55;3.13;;;2.83;;
39314;SDS011;28703;44.412;11.918;2023-06-14T13:06:21;3.80;;;2.78;;
39314;SDS011;28703;44.412;11.918;2023-06-14T13:08:50;2.83;;;2.22;;
39314;SDS011;28703;44.412;11.918;2023-06-14T13:11:16;2.20;;;2.00;;
39314;SDS011;28703;44.412;11.918;2023-06-14T13:13:42;2.00;;;1.90;;
39314;SDS011;28703;44.412;11.918;2023-06-14T13:16:08;5.07;;;2.63;;
39314;SDS011;28703;44.412;11.918;2023-06-14T13:18:33;3.22;;;2.70;;
39314;SDS011;28703;44.412;11.918;2023-06-14T13:20:59;3.22;;;2.80;;
39314;SDS011;28703;44.412;11.918;2023-06-14T13:23:26;5.65;;;2.90;;
39314;SDS011;28703;44.412;11.918;2023-06-14T13:25:52;5.65;;;2.55;;
39314;SDS011;28703;44.412;11.918;2023-06-14T13:28:18;13.80;;;12.57;;
39314;SDS011;28703;44.412;11.918;2023-06-14T13:30:44;24.48;;;18.73;;
39314;SDS011;28703;44.412;11.918;2023-06-14T13:33:10;28.73;;;23.58;;
39314;SDS011;28703;44.412;11.918;2023-06-14T13:35:36;10.25;;;8.75;;
39314;SDS011;28703;44.412;11.918;2023-06-14T13:38:02;13.25;;;4.82;;
39314;SDS011;28703;44.412;11.918;2023-06-14T13:40:28;6.57;;;3.70;;
39314;SDS011;28703;44.412;11.918;2023-06-14T13:42:53;2.70;;;2.47;;
39314;SDS011;28703;44.412;11.918;2023-06-14T13:45:19;8.02;;;2.80;;
39314;SDS011;28703;44.412;11.918;2023-06-14T13:47:45;3.78;;;3.47;;
39314;SDS011;28703;44.412;11.918;2023-06-14T13:50:13;5.53;;;2.65;;
39314;SDS011;28703;44.412;11.918;2023-06-14T13:52:39;2.95;;;2.65;;
39314;SDS011;28703;44.412;11.918;2023-06-14T13:55:05;6.22;;;2.92;;
39314;SDS011;28703;44.412;11.918;2023-06-14T13:57:31;7.22;;;3.55;;
39314;SDS011;28703;44.412;11.918;2023-06-14T13:59:57;4.00;;;2.80;;
39314;SDS011;28703;44.412;11.918;2023-06-14T14:02:29;4.22;;;3.28;;
39314;SDS011;28703;44.412;11.918;2023-06-14T14:04:55;7.60;;;2.80;;
39314;SDS011;28703;44.412;11.918;2023-06-14T14:07:22;4.95;;;2.65;;
39314;SDS011;28703;44.412;11.918;2023-06-14T14:09:48;4.07;;;2.80;;
39314;SDS011;28703;44.412;11.918;2023-06-14T14:12:14;4.30;;;2.47;;
39314;SDS011;28703;44.412;11.918;2023-06-14T14:14:40;2.90;;;2.40;;
39314;SDS011;28703;44.412;11.918;2023-06-14T14:17:06;2.20;;;2.10;;
39314;SDS011;28703;44.412;11.918;2023-06-14T14:19:32;5.80;;;2.00;;
39314;SDS011;28703;44.412;11.918;2023-06-14T14:21:58;2.45;;;2.25;;
39314;SDS011;28703;44.412;11.918;2023-06-14T14:24:24;3.00;;;2.45;;
39314;SDS011;28703;44.412;11.918;2023-06-14T14:26:51;2.55;;;2.30;;
39314;SDS011;28703;44.412;11.918;2023-06-14T14:29:19;3.38;;;3.08;;
39314;SDS011;28703;44.412;11.918;2023-06-14T14:31:45;3.17;;;2.58;;
39314;SDS011;28703;44.412;11.918;2023-06-14T14:34:11;2.42;;;2.13;;
39314;SDS011;28703;44.412;11.918;2023-06-14T14:36:37;4.25;;;2.40;;
39314;SDS011;28703;44.412;11.918;2023-06-14T14:39:07;4.88;;;2.40;;
39314;SDS011;28703;44.412;11.918;2023-06-14T14:41:34;3.40;;;2.08;;
39314;SDS011;28703;44.412;11.918;2023-06-14T14:44:00;2.35;;;1.92;;
39314;SDS011;28703;44.412;11.918;2023-06-14T14:46:27;2.85;;;2.10;;